Time;durP1;ratioP1;P1;durP2;ratioP2;P2;SDS_P1;SDS_P2;PMS_P1;PMS_P2;Temp;Humidity;BMP_temperature;BMP_pressure;BME280_temperature;BME280_humidity;BME280_pressure;Samples;Min_cycle;Max_cycle;Signal;HPM_P1;HPM_P2
2022/07/18 00:02:12;;;;;;;6.87;5.30;;;;;;;19.01;55.50;102145.34;5057890;28;20255;-71
2022/07/18 00:04:37;;;;;;;8.53;5.67;;;;;;;19.14;55.15;102148.81;5057797;28;20181;-70
2022/07/18 00:07:03;;;;;;;5.27;4.80;;;;;;;19.44;55.17;102148.69;5058459;28;20537;-70
2022/07/18 00:09:28;;;;;;;8.40;7.60;;;;;;;19.31;55.17;102145.25;5057947;28;20316;-70
2022/07/18 00:11:53;;;;;;;6.50;5.30;;;;;;;19.19;55.72;102141.75;5057728;28;20212;-70
2022/07/18 00:14:20;;;;;;;6.03;4.67;;;;;;;19.32;56.22;102126.72;5057646;28;20193;-69
2022/07/18 00:16:46;;;;;;;5.50;4.73;;;;;;;19.35;56.48;102126.69;5057851;28;20170;-70
2022/07/18 00:19:12;;;;;;;5.57;4.57;;;;;;;19.33;57.00;102120.53;5058127;28;20423;-70
2022/07/18 00:21:38;;;;;;;6.83;5.37;;;;;;;19.23;56.71;102125.84;5058444;28;20165;-70
2022/07/18 00:24:03;;;;;;;7.30;5.37;;;;;;;19.34;57.31;102126.72;5058005;28;20438;-69
2022/07/18 00:26:28;;;;;;;8.20;5.57;;;;;;;19.20;57.54;102132.06;5057835;28;20200;-70
2022/07/18 00:28:55;;;;;;;7.00;5.90;;;;;;;19.39;57.00;102130.22;5058063;28;20542;-70
2022/07/18 00:31:20;;;;;;;7.80;5.93;;;;;;;18.95;58.31;102121.56;5057595;28;20197;-70
2022/07/18 00:33:46;;;;;;;6.30;5.67;;;;;;;18.99;58.71;102123.31;5057705;28;20652;-70
2022/07/18 00:36:11;;;;;;;5.80;5.30;;;;;;;18.99;58.61;102123.31;5058327;28;20267;-70
2022/07/18 00:38:37;;;;;;;8.43;6.30;;;;;;;19.12;58.62;102128.53;5057637;28;20173;-70
2022/07/18 00:41:02;;;;;;;6.90;5.60;;;;;;;19.18;58.73;102120.59;5057838;28;20170;-70
2022/07/18 00:43:28;;;;;;;8.33;6.37;;;;;;;19.31;58.58;102121.44;5057396;28;20173;-70
2022/07/18 00:45:53;;;;;;;6.33;5.83;;;;;;;19.11;59.05;102125.03;5056842;28;20256;-70
2022/07/18 00:48:19;;;;;;;9.00;5.80;;;;;;;19.34;58.69;102132.88;5056922;28;20189;-70
2022/07/18 00:50:45;;;;;;;6.83;5.37;;;;;;;19.04;59.04;102130.34;5057871;28;20475;-70
2022/07/18 00:53:11;;;;;;;8.13;6.30;;;;;;;18.93;59.78;102112.78;5057280;28;20408;-70
2022/07/18 00:55:38;;;;;;;7.57;5.13;;;;;;;19.28;58.57;102118.78;5057550;28;20174;-70
2022/07/18 00:58:03;;;;;;;5.10;4.60;;;;;;;19.15;58.24;102118.84;5057987;28;20420;-70
2022/07/18 01:03:13;;;;;;;5.13;4.67;;;;;;;19.32;57.39;102116.13;5058785;28;20188;-70
2022/07/18 01:05:38;;;;;;;9.37;5.13;;;;;;;19.22;58.25;102119.69;5057430;28;20786;-70
2022/07/18 01:08:04;;;;;;;6.57;5.53;;;;;;;19.17;58.65;102119.72;5057486;28;20252;-70
2022/07/18 01:10:29;;;;;;;5.83;5.13;;;;;;;19.11;58.98;102125.03;5057698;28;20198;-70
2022/07/18 01:12:54;;;;;;;7.67;4.30;;;;;;;19.22;58.22;102127.63;5056381;28;20178;-70
2022/07/18 01:15:20;;;;;;;7.87;5.23;;;;;;;19.22;58.43;102130.28;5057172;28;20200;-70
2022/07/18 01:17:45;;;;;;;5.63;5.10;;;;;;;19.25;58.31;102135.53;5057819;28;20169;-71
2022/07/18 01:20:11;;;;;;;6.10;5.50;;;;;;;19.06;59.16;102126.81;5057420;28;20223;-71
2022/07/18 01:22:38;;;;;;;7.40;5.23;;;;;;;18.86;59.64;102132.13;5057235;28;20178;-70
2022/07/18 01:25:05;;;;;;;6.07;5.47;;;;;;;18.97;59.69;102124.19;5060645;28;20165;-70
2022/07/18 01:27:30;;;;;;;5.97;5.47;;;;;;;18.91;59.66;102117.16;5060063;28;20486;-71
2022/07/18 01:29:55;;;;;;;6.03;5.53;;;;;;;18.89;59.84;102115.41;5060670;28;20813;-71
2022/07/18 01:32:21;;;;;;;5.87;5.27;;;;;;;19.26;59.05;102116.16;5061062;28;20169;-70
2022/07/18 01:34:47;;;;;;;9.73;5.80;;;;;;;19.17;59.64;102127.66;5060886;28;20249;-70
2022/07/18 01:37:13;;;;;;;5.40;4.93;;;;;;;19.08;59.93;102121.50;5060767;28;20252;-70
2022/07/18 01:39:38;;;;;;;6.07;5.57;;;;;;;18.87;60.48;102117.16;5062975;28;20439;-70
2022/07/18 01:42:06;;;;;;;5.90;5.40;;;;;;;18.68;61.07;102117.19;5061182;28;20535;-70
2022/07/18 01:44:32;;;;;;;6.70;6.00;;;;;;;18.76;61.42;102114.53;5059890;28;20176;-70
2022/07/18 01:46:58;;;;;;;5.93;5.20;;;;;;;18.89;61.18;102113.66;5061053;28;20482;-69
2022/07/18 01:49:24;;;;;;;6.20;5.60;;;;;;;18.89;61.09;102099.56;5060485;28;20820;-70
2022/07/18 01:51:52;;;;;;;5.87;5.30;;;;;;;18.98;60.96;102105.72;5060719;28;20201;-69
2022/07/18 01:54:23;;;;;;;6.13;5.53;;;;;;;18.97;61.01;102101.31;5060145;28;20904;-70
2022/07/18 01:56:48;;;;;;;5.27;4.77;;;;;;;18.76;61.14;102102.19;5060264;28;20438;-70
2022/07/18 01:59:14;;;;;;;6.50;6.00;;;;;;;18.73;61.87;102110.16;5060596;28;20798;-70
2022/07/18 02:01:39;;;;;;;7.63;5.67;;;;;;;18.49;62.20;102111.06;5060270;28;20551;-70
2022/07/18 02:04:05;;;;;;;7.00;5.90;;;;;;;18.82;61.31;102103.94;5060279;28;20211;-69
2022/07/18 02:06:30;;;;;;;5.70;5.20;;;;;;;18.94;61.45;102111.91;5060851;28;20178;-71
2022/07/18 02:08:55;;;;;;;7.07;5.73;;;;;;;19.03;61.15;102100.41;5060203;28;20550;-70
2022/07/18 02:11:21;;;;;;;6.00;5.50;;;;;;;18.75;62.08;102099.56;5059898;28;20216;-70
2022/07/18 02:13:46;;;;;;;5.97;5.37;;;;;;;18.88;62.00;102100.44;5060256;28;20247;-70
2022/07/18 02:16:12;;;;;;;5.90;5.30;;;;;;;18.81;61.97;102089.88;5059878;28;20194;-69
2022/07/18 02:18:37;;;;;;;7.30;5.40;;;;;;;19.09;61.54;102095.09;5059814;28;20547;-69
2022/07/18 02:21:02;;;;;;;7.53;5.53;;;;;;;18.84;62.26;102088.97;5060273;28;20197;-72
2022/07/18 02:23:28;;;;;;;5.60;5.10;;;;;;;18.99;61.75;102085.44;5059718;28;20166;-69
2022/07/18 02:25:54;;;;;;;7.50;5.80;;;;;;;18.92;62.21;102095.16;5059791;28;20170;-70
2022/07/18 02:28:19;;;;;;;7.67;5.70;;;;;;;18.80;62.32;102088.09;5060150;28;20173;-70
2022/07/18 02:30:45;;;;;;;7.33;5.90;;;;;;;18.87;62.59;102090.75;5059668;28;20284;-70
2022/07/18 02:33:10;;;;;;;5.40;5.00;;;;;;;18.53;63.52;102091.69;5059487;28;20223;-70
2022/07/18 02:35:36;;;;;;;10.03;6.10;;;;;;;18.55;63.83;102081.13;5059823;28;20169;-70
2022/07/18 02:38:02;;;;;;;6.23;5.60;;;;;;;18.68;63.67;102081.09;5059073;28;20523;-70
2022/07/18 02:40:27;;;;;;;6.20;5.53;;;;;;;18.59;63.91;102086.41;5059450;28;20504;-70
2022/07/18 02:42:53;;;;;;;6.40;5.70;;;;;;;18.41;64.10;102087.31;5059873;28;20391;-70
2022/07/18 02:45:18;;;;;;;5.90;5.27;;;;;;;18.46;64.55;102090.81;5059169;28;20166;-70
2022/07/18 02:47:44;;;;;;;6.27;5.67;;;;;;;18.55;64.28;102089.03;5058533;28;20224;-70
2022/07/18 02:50:10;;;;;;;6.20;5.60;;;;;;;18.42;64.81;102094.34;5059703;28;20197;-70
2022/07/18 02:52:35;;;;;;;7.33;6.23;;;;;;;18.56;64.08;102096.97;5059257;28;20479;-70
2022/07/18 02:55:01;;;;;;;6.20;5.70;;;;;;;18.65;63.89;102096.94;5058889;28;20460;-70
2022/07/18 02:57:27;;;;;;;5.70;5.00;;;;;;;18.41;64.50;102097.88;5059365;28;20222;-70
2022/07/18 02:59:53;;;;;;;6.13;5.47;;;;;;;18.34;65.37;102093.50;5059096;28;20219;-70
2022/07/18 03:02:18;;;;;;;6.70;5.43;;;;;;;18.36;65.33;102097.03;5058892;28;20791;-70
2022/07/18 03:04:43;;;;;;;7.90;5.80;;;;;;;18.08;65.75;102098.78;5059286;28;20166;-70
2022/07/18 03:07:09;;;;;;;6.43;5.83;;;;;;;18.29;65.19;102088.22;5059036;28;20169;-70
2022/07/18 03:09:34;;;;;;;7.80;5.40;;;;;;;18.18;65.32;102090.88;5058918;28;20244;-70
2022/07/18 03:11:59;;;;;;;6.00;5.40;;;;;;;18.31;65.21;102086.44;5059290;28;20577;-70
2022/07/18 03:14:25;;;;;;;7.03;5.80;;;;;;;18.41;65.11;102091.72;5058560;28;20205;-70
2022/07/18 03:16:50;;;;;;;6.63;5.87;;;;;;;18.51;64.74;102089.06;5058710;28;20162;-70
2022/07/18 03:19:15;;;;;;;5.57;5.17;;;;;;;18.56;64.03;102093.44;5059233;28;20184;-69
2022/07/18 03:21:41;;;;;;;6.53;6.00;;;;;;;18.42;65.23;102086.44;5058665;28;20244;-69
2022/07/18 03:24:07;;;;;;;8.80;6.03;;;;;;;18.37;64.77;102082.91;5058548;28;20546;-70
2022/07/18 03:26:32;;;;;;;6.23;5.73;;;;;;;18.73;63.99;102075.81;5059142;28;20441;-69
2022/07/18 03:28:57;;;;;;;7.80;6.00;;;;;;;18.87;63.80;102080.16;5058523;28;20166;-70
2022/07/18 03:31:23;;;;;;;7.70;6.30;;;;;;;18.65;64.72;102072.31;5058442;28;20211;-69
2022/07/18 03:33:48;;;;;;;6.43;5.83;;;;;;;18.63;64.64;102074.06;5058766;28;20169;-70
2022/07/18 03:36:14;;;;;;;6.50;5.90;;;;;;;18.78;63.83;102060.81;5058746;28;20256;-69
2022/07/18 03:38:42;;;;;;;6.77;5.93;;;;;;;18.54;64.13;102051.22;5058855;28;20181;-70
2022/07/18 03:41:11;;;;;;;6.90;6.20;;;;;;;18.14;65.62;102052.16;5058826;28;20241;-71
2022/07/18 03:43:38;;;;;;;7.47;6.70;;;;;;;18.33;64.54;102041.56;5058456;28;20453;-70
2022/07/18 03:46:03;;;;;;;6.80;6.13;;;;;;;18.50;63.96;102037.13;5058498;28;20495;-70
2022/07/18 03:48:29;;;;;;;10.03;6.30;;;;;;;17.99;65.27;102060.94;5057453;28;20436;-70
2022/07/18 03:50:54;;;;;;;6.60;6.00;;;;;;;18.38;64.39;102066.19;5058258;28;20202;-70
2022/07/18 03:53:19;;;;;;;6.93;6.00;;;;;;;18.58;63.48;102068.81;5057854;28;20221;-69
2022/07/18 03:55:45;;;;;;;7.73;6.30;;;;;;;18.65;63.23;102061.75;5059077;28;20300;-70
2022/07/18 03:58:10;;;;;;;6.43;5.93;;;;;;;18.72;63.35;102066.13;5058169;28;20173;-69
2022/07/18 04:00:36;;;;;;;9.77;6.30;;;;;;;18.95;62.27;102070.47;5058145;28;20245;-70
2022/07/18 04:03:01;;;;;;;9.63;6.70;;;;;;;18.68;62.71;102064.38;5058717;28;20577;-69
2022/07/18 04:05:26;;;;;;;9.73;6.47;;;;;;;18.93;61.83;102064.31;5058127;28;20161;-69
2022/07/18 04:07:52;;;;;;;12.93;6.30;;;;;;;18.78;62.05;102068.75;5058052;28;20165;-69
2022/07/18 04:10:17;;;;;;;7.93;6.03;;;;;;;18.98;61.25;102076.66;5058045;28;20248;-69
2022/07/18 04:12:51;;;;;;;7.90;6.10;;;;;;;18.80;61.80;102066.97;5057827;28;20195;-70
2022/07/18 04:15:18;;;;;;;8.53;6.37;;;;;;;18.18;63.06;102061.84;5057695;28;20243;-69
2022/07/18 04:17:43;;;;;;;6.90;6.10;;;;;;;18.48;63.26;102057.38;5057133;28;20470;-70
2022/07/18 04:20:10;;;;;;;7.33;6.33;;;;;;;18.37;63.41;102066.22;5057917;28;20436;-71
2022/07/18 04:22:53;;;;;;;6.50;5.97;;;;;;;18.61;62.60;102058.22;5057444;28;20441;-69
2022/07/18 04:25:20;;;;;;;7.73;5.80;;;;;;;18.60;62.26;102050.31;5057864;28;20430;-69
2022/07/18 04:27:46;;;;;;;6.40;5.87;;;;;;;18.51;62.21;102059.16;5057908;28;20419;-70
2022/07/18 04:30:12;;;;;;;6.67;6.07;;;;;;;18.68;61.80;102059.94;5057874;28;20843;-70
2022/07/18 04:32:38;;;;;;;9.90;5.77;;;;;;;18.46;62.55;102053.00;5057781;28;20426;-70
2022/07/18 04:35:05;;;;;;;6.93;5.80;;;;;;;17.83;63.87;102056.50;5058002;28;20412;-70
2022/07/18 04:37:33;;;;;;;6.80;6.20;;;;;;;18.16;63.40;102057.44;5057741;28;20247;-70
2022/07/18 04:40:00;;;;;;;6.60;6.10;;;;;;;18.10;63.75;102054.78;5057925;28;20383;-70
2022/07/18 04:42:25;;;;;;;7.43;6.10;;;;;;;18.50;61.85;102047.69;5058106;28;20419;-70
2022/07/18 04:44:51;;;;;;;6.30;5.70;;;;;;;18.61;61.76;102049.44;5057620;28;20395;-70
2022/07/18 04:47:16;;;;;;;6.63;6.00;;;;;;;19.29;59.86;102046.53;5057745;28;20561;-70
2022/07/18 04:49:42;;;;;;;6.93;6.23;;;;;;;19.43;59.62;102039.38;5057978;28;20181;-71
2022/07/18 04:52:07;;;;;;;8.40;6.67;;;;;;;19.41;59.21;102051.72;5058953;28;20579;-67
2022/07/18 04:54:32;;;;;;;6.83;6.13;;;;;;;20.13;57.24;102046.81;5058858;28;20240;-69
2022/07/18 04:56:58;;;;;;;6.57;5.97;;;;;;;20.15;57.26;102045.03;5058381;28;20196;-68
2022/07/18 04:59:23;;;;;;;7.67;6.90;;;;;;;19.94;57.43;102035.50;5057580;28;20184;-69
2022/07/18 05:01:48;;;;;;;8.33;7.13;;;;;;;19.74;57.86;102043.56;5061061;28;20174;-68
2022/07/18 05:04:14;;;;;;;8.90;6.50;;;;;;;19.71;58.21;102031.25;5061424;28;20173;-68
2022/07/18 05:06:39;;;;;;;9.00;7.00;;;;;;;19.65;58.29;102039.25;5061238;28;20165;-70
2022/07/18 05:09:04;;;;;;;8.13;6.80;;;;;;;19.28;59.16;102035.06;5061331;28;20472;-71
2022/07/18 05:11:30;;;;;;;7.10;6.40;;;;;;;19.51;58.94;102032.28;5061359;28;20208;-71
2022/07/18 05:13:55;;;;;;;10.80;7.10;;;;;;;19.52;58.69;102036.69;5060132;28;20185;-69
2022/07/18 05:16:21;;;;;;;9.30;7.20;;;;;;;20.07;57.24;102039.81;5061260;28;20169;-71
2022/07/18 05:18:46;;;;;;;8.87;7.87;;;;;;;19.78;57.53;102040.00;5061194;28;20219;-69
2022/07/18 05:21:12;;;;;;;7.40;6.70;;;;;;;20.07;57.15;102045.09;5061527;28;20267;-68
2022/07/18 05:23:37;;;;;;;8.77;7.87;;;;;;;19.79;57.22;102041.78;5061840;28;20179;-69
2022/07/18 05:26:02;;;;;;;9.30;7.30;;;;;;;20.02;56.70;102041.59;5061956;28;20169;-69
2022/07/18 05:28:28;;;;;;;9.07;8.20;;;;;;;20.14;56.22;102041.50;5061108;28;20211;-70
2022/07/18 05:30:54;;;;;;;8.80;8.00;;;;;;;20.13;56.25;102041.50;5060589;28;20216;-69
2022/07/18 05:33:20;;;;;;;10.40;7.43;;;;;;;20.14;56.56;102041.50;5060989;28;20158;-69
2022/07/18 05:35:46;;;;;;;11.20;8.87;;;;;;;20.30;55.75;102039.56;5060803;28;20443;-69
2022/07/18 05:38:11;;;;;;;13.47;8.30;;;;;;;20.56;54.54;102038.41;5060606;28;20478;-69
2022/07/18 05:40:36;;;;;;;11.20;9.03;;;;;;;20.40;55.73;102044.78;5061207;28;20614;-69
2022/07/18 05:43:02;;;;;;;14.57;10.47;;;;;;;21.85;51.65;102029.59;5060683;28;20169;-69
2022/07/18 05:45:28;;;;;;;15.37;9.93;;;;;;;22.34;49.78;102025.19;5060486;28;20169;-68
2022/07/18 05:47:53;;;;;;;11.43;10.17;;;;;;;23.41;47.33;102037.19;5060899;28;20265;-69
2022/07/18 05:50:19;;;;;;;12.40;11.10;;;;;;;22.81;48.46;102036.69;5060362;28;20165;-70
2022/07/18 05:52:44;;;;;;;10.70;9.43;;;;;;;23.01;48.28;102048.66;5060294;28;20252;-69
2022/07/18 05:55:10;;;;;;;16.80;9.60;;;;;;;22.49;48.45;102038.22;5060497;28;20266;-69
2022/07/18 05:57:35;;;;;;;10.30;9.40;;;;;;;24.15;45.02;102050.44;5059623;28;20174;-70
2022/07/18 06:00:06;;;;;;;9.87;8.90;;;;;;;24.46;43.76;102045.16;5060210;28;20203;-70
2022/07/18 06:02:31;;;;;;;11.70;9.77;;;;;;;24.32;44.15;102047.34;5060489;28;20161;-70
2022/07/18 06:04:57;;;;;;;11.97;8.47;;;;;;;25.98;40.94;102044.09;5059926;28;20499;-69
2022/07/18 06:07:22;;;;;;;9.43;8.10;;;;;;;22.95;46.12;102048.78;5060104;28;20170;-70
2022/07/18 06:09:48;;;;;;;11.27;7.40;;;;;;;22.47;48.04;102036.47;5060446;28;20162;-70
2022/07/18 06:12:15;;;;;;;7.63;7.00;;;;;;;22.70;47.64;102036.03;5059276;28;20213;-70
2022/07/18 06:14:40;;;;;;;9.30;6.97;;;;;;;23.92;44.68;102032.41;5059194;28;20555;-70
2022/07/18 06:17:05;;;;;;;7.53;6.80;;;;;;;25.21;41.93;102023.41;5060220;28;20419;-70
2022/07/18 06:19:31;;;;;;;14.27;6.90;;;;;;;25.80;41.00;102021.53;5060063;28;20243;-70
2022/07/18 06:21:56;;;;;;;7.63;6.93;;;;;;;25.65;40.38;102028.25;5059974;28;20547;-70
2022/07/18 06:24:22;;;;;;;10.20;7.37;;;;;;;24.14;43.83;102028.28;5059879;28;20192;-70
2022/07/18 06:26:49;;;;;;;10.27;6.90;;;;;;;25.15;42.15;102025.41;5058969;28;20256;-70
2022/07/18 06:29:14;;;;;;;11.90;7.10;;;;;;;24.34;42.54;102040.16;5059684;28;20176;-71
2022/07/18 06:31:40;;;;;;;7.53;6.83;;;;;;;25.50;40.44;102026.97;5059815;28;20784;-70
2022/07/18 06:34:05;;;;;;;10.23;7.70;;;;;;;25.42;40.28;102031.69;5059450;28;20494;-70
2022/07/18 06:36:31;;;;;;;9.50;6.97;;;;;;;27.26;36.48;102021.59;5059615;28;20166;-70
2022/07/18 06:38:56;;;;;;;8.17;6.20;;;;;;;28.10;35.16;102019.88;5059751;28;20174;-70
2022/07/18 06:41:21;;;;;;;8.50;6.20;;;;;;;27.68;35.31;102018.09;5059474;28;20193;-71
2022/07/18 06:43:47;;;;;;;8.83;6.57;;;;;;;28.04;34.77;102021.03;5059157;28;20174;-71
2022/07/18 06:46:12;;;;;;;11.50;7.13;;;;;;;27.96;34.59;102016.94;5059915;28;20531;-70
2022/07/18 06:48:38;;;;;;;7.37;6.60;;;;;;;28.13;34.93;102008.16;5059171;28;20170;-73
2022/07/18 06:51:04;;;;;;;9.80;7.10;;;;;;;29.59;32.57;102004.94;5059010;28;20193;-71
2022/07/18 06:53:30;;;;;;;7.27;6.57;;;;;;;30.36;30.69;101999.13;5059202;28;20223;-69
2022/07/18 06:55:56;;;;;;;11.73;6.57;;;;;;;30.15;30.31;102002.97;5059154;28;20427;-70
2022/07/18 06:58:22;;;;;;;7.53;6.23;;;;;;;29.53;30.95;102006.97;5058418;28;20257;-70
2022/07/18 07:00:47;;;;;;;9.50;6.20;;;;;;;28.98;31.72;102009.66;5059048;28;20483;-70
2022/07/18 07:03:12;;;;;;;11.90;6.57;;;;;;;26.14;37.34;102024.88;5058863;28;20189;-70
2022/07/18 07:05:38;;;;;;;10.50;6.97;;;;;;;25.97;37.49;102023.63;5059311;28;20532;-70
2022/07/18 07:08:03;;;;;;;7.83;6.50;;;;;;;26.65;36.62;102015.00;5058851;28;20165;-70
2022/07/18 07:10:29;;;;;;;8.60;6.60;;;;;;;29.08;33.21;101997.56;5058758;28;20190;-72
2022/07/18 07:12:54;;;;;;;11.50;6.37;;;;;;;29.12;32.61;101988.41;5059099;28;20189;-71
2022/07/18 07:15:22;;;;;;;8.67;7.13;;;;;;;27.87;34.41;101997.63;5058617;28;20166;-71
2022/07/18 07:17:48;;;;;;;10.60;7.00;;;;;;;27.02;34.88;102001.09;5058542;28;20196;-70
2022/07/18 07:20:14;;;;;;;22.00;7.50;;;;;;;27.30;35.49;101999.13;5059222;28;20398;-69
2022/07/18 07:22:44;;;;;;;15.23;7.10;;;;;;;27.96;34.07;101995.50;5058636;28;20173;-70
2022/07/18 07:25:10;;;;;;;11.60;7.70;;;;;;;27.81;34.55;101995.22;5057962;28;20176;-70
2022/07/18 07:27:35;;;;;;;9.47;6.83;;;;;;;27.57;34.79;101999.81;5058797;28;20805;-69
2022/07/18 07:30:01;;;;;;;13.77;7.00;;;;;;;27.19;36.19;102012.94;5058471;28;20416;-69
2022/07/18 07:32:26;;;;;;;12.30;7.10;;;;;;;26.28;36.98;102017.25;5058260;28;20205;-69
2022/07/18 07:34:51;;;;;;;7.70;6.97;;;;;;;26.55;35.67;102017.16;5058629;28;20245;-70
2022/07/18 07:37:17;;;;;;;8.23;7.40;;;;;;;26.64;35.69;102010.56;5058282;28;20558;-70
2022/07/18 07:39:42;;;;;;;8.37;7.50;;;;;;;26.75;36.02;102010.19;5058465;28;20170;-70
2022/07/18 07:42:07;;;;;;;8.70;6.97;;;;;;;27.50;34.76;102009.91;5058716;28;20168;-70
2022/07/18 07:44:33;;;;;;;9.77;7.17;;;;;;;27.41;34.40;102004.91;5058152;28;20260;-69
2022/07/18 07:46:59;;;;;;;8.57;6.93;;;;;;;28.55;32.49;102005.34;5058201;28;20253;-69
2022/07/18 07:49:25;;;;;;;9.07;7.43;;;;;;;30.45;29.51;101989.69;5058636;28;20172;-69
2022/07/18 07:51:50;;;;;;;9.00;7.40;;;;;;;30.27;30.13;101985.28;5057974;28;20849;-68
2022/07/18 07:54:15;;;;;;;7.47;6.77;;;;;;;31.02;28.00;101988.34;5057656;28;20229;-69
2022/07/18 07:56:41;;;;;;;8.50;7.57;;;;;;;31.48;27.80;101988.38;5058200;28;20162;-69
2022/07/18 07:59:06;;;;;;;8.13;7.13;;;;;;;27.80;32.18;101995.28;5058033;28;20248;-73
2022/07/18 08:01:31;;;;;;;7.47;6.77;;;;;;;28.44;31.94;101993.38;5057940;28;20173;-71
2022/07/18 08:03:57;;;;;;;8.00;6.70;;;;;;;28.02;32.66;101990.75;5058483;28;20466;-71
2022/07/18 08:06:22;;;;;;;8.10;7.30;;;;;;;26.00;35.65;101990.59;5057104;28;20177;-71
2022/07/18 08:08:47;;;;;;;7.73;7.10;;;;;;;27.53;33.80;101977.63;5057871;28;20296;-70
2022/07/18 08:11:13;;;;;;;7.40;6.70;;;;;;;28.46;32.30;101984.31;5057981;28;20198;-74
2022/07/18 08:13:38;;;;;;;8.47;6.97;;;;;;;29.31;30.55;101985.72;5057629;28;20173;-74
2022/07/18 08:16:04;;;;;;;7.37;6.67;;;;;;;29.98;29.66;101979.66;5057802;28;20523;-72
2022/07/18 08:18:29;;;;;;;5.77;5.27;;;;;;;30.55;29.21;101974.81;5058316;28;20241;-70
2022/07/18 08:20:54;;;;;;;6.60;5.37;;;;;;;30.06;29.02;101983.66;5057902;28;20257;-71
2022/07/18 08:23:20;;;;;;;7.07;5.77;;;;;;;29.90;29.19;101980.94;5057782;28;20227;-70
2022/07/18 08:25:46;;;;;;;5.63;5.10;;;;;;;29.00;30.52;101979.13;5058070;28;20213;-73
2022/07/18 08:28:11;;;;;;;6.23;5.73;;;;;;;30.72;28.46;101959.53;5057020;28;20180;-72
2022/07/18 08:30:38;;;;;;;6.07;5.43;;;;;;;30.10;29.61;101959.31;5057532;28;20202;-72
2022/07/18 08:33:04;;;;;;;8.20;5.63;;;;;;;30.30;30.81;101955.56;5058145;28;20200;-70
2022/07/18 08:35:31;;;;;;;9.20;5.90;;;;;;;29.89;29.98;101959.47;5059217;28;20415;-69
2022/07/18 08:37:57;;;;;;;6.17;5.60;;;;;;;29.18;30.56;101949.63;5061767;28;20409;-70
2022/07/18 08:40:22;;;;;;;7.20;5.23;;;;;;;29.34;30.67;101941.72;5062243;28;20411;-70
2022/07/18 08:42:52;;;;;;;8.23;6.43;;;;;;;30.67;28.66;101938.22;5061606;28;20174;-69
2022/07/18 08:45:22;;;;;;;5.90;5.40;;;;;;;30.68;28.99;101922.97;5061335;28;20264;-71
2022/07/18 08:47:47;;;;;;;6.00;5.40;;;;;;;29.78;30.28;101927.75;5062005;28;20432;-70
2022/07/18 08:50:13;;;;;;;5.97;5.03;;;;;;;31.10;28.50;101928.69;5060526;28;20447;-73
2022/07/18 08:52:39;;;;;;;6.70;5.50;;;;;;;32.54;26.36;101918.97;5061547;28;20177;-74
2022/07/18 08:55:06;;;;;;;7.43;5.80;;;;;;;32.07;26.55;101926.41;5061154;28;20308;-70
2022/07/18 08:57:32;;;;;;;6.07;5.47;;;;;;;31.61;27.48;101929.25;5061357;28;20474;-73
2022/07/18 08:59:57;;;;;;;5.60;5.10;;;;;;;31.58;27.41;101929.38;5061869;28;20422;-73
2022/07/18 09:02:26;;;;;;;6.90;6.20;;;;;;;31.12;28.28;101919.56;5061189;28;20461;-73
2022/07/18 09:04:52;;;;;;;6.17;5.43;;;;;;;30.18;29.87;101927.50;5061053;28;20212;-74
2022/07/18 09:07:30;;;;;;;8.53;5.20;;;;;;;32.00;26.80;101924.16;5061442;28;20491;-74
2022/07/18 09:09:58;;;;;;;6.03;5.47;;;;;;;28.41;31.96;101943.41;5061144;28;20220;-71
2022/07/18 09:12:25;;;;;;;6.07;5.47;;;;;;;30.94;28.88;101929.53;5060981;28;20474;-71
2022/07/18 09:14:50;;;;;;;6.13;5.53;;;;;;;31.47;27.58;101926.50;5060880;28;20412;-72
2022/07/18 09:17:21;;;;;;;5.60;5.10;;;;;;;32.19;27.32;101932.91;5060814;28;20515;-72
2022/07/18 09:20:01;;;;;;;6.00;5.50;;;;;;;31.38;28.02;101938.69;5061246;28;20169;-71
2022/07/18 09:22:29;;;;;;;6.20;5.60;;;;;;;32.13;26.10;101930.53;5060140;28;20746;-71
2022/07/18 09:25:21;;;;;;;5.90;5.43;;;;;;;31.73;27.04;101941.97;5060664;28;20722;-76
2022/07/18 09:27:52;;;;;;;6.63;5.30;;;;;;;32.84;26.50;101944.06;5060376;28;20439;-74
2022/07/18 09:30:23;;;;;;;5.33;4.80;;;;;;;32.18;27.02;101950.03;5060651;28;20451;-71
2022/07/18 09:32:51;;;;;;;6.93;5.30;;;;;;;30.95;28.75;101952.81;5060749;28;20458;-72
2022/07/18 09:35:26;;;;;;;6.87;6.17;;;;;;;32.14;26.98;101951.16;5061134;28;20714;-69
2022/07/18 09:38:12;;;;;;;5.63;5.13;;;;;;;33.28;26.23;101945.66;5060518;28;20813;-71
2022/07/18 09:40:41;;;;;;;8.97;5.50;;;;;;;33.89;25.08;101948.69;5060476;28;20419;-71
2022/07/18 09:43:09;;;;;;;6.50;5.00;;;;;;;33.35;25.90;101959.63;5060149;28;20420;-74
2022/07/18 09:45:37;;;;;;;5.40;4.90;;;;;;;31.55;27.42;101957.44;5059978;28;20590;-72
2022/07/18 09:48:08;;;;;;;9.87;5.20;;;;;;;33.21;26.41;101952.44;5059657;28;20794;-73
2022/07/18 09:50:40;;;;;;;5.30;4.80;;;;;;;32.83;26.44;101947.75;5060131;28;20466;-73
2022/07/18 09:53:36;;;;;;;6.67;4.80;;;;;;;33.37;26.35;101945.03;5060253;28;20427;-74
2022/07/18 09:56:04;;;;;;;4.90;4.50;;;;;;;34.41;25.14;101952.22;5059854;28;20440;-73
2022/07/18 09:58:31;;;;;;;5.17;4.70;;;;;;;32.87;26.39;101957.38;5059377;28;20424;-73
2022/07/18 10:00:58;;;;;;;5.13;4.53;;;;;;;31.85;28.33;101963.75;5059863;28;20442;-73
2022/07/18 10:03:24;;;;;;;5.50;4.73;;;;;;;32.23;27.49;101957.81;5059660;28;20499;-73
2022/07/18 10:05:52;;;;;;;6.40;5.33;;;;;;;32.13;28.57;101959.34;5060285;28;20741;-73
2022/07/18 10:08:20;;;;;;;15.30;5.70;;;;;;;31.36;28.80;101956.78;5059777;28;20174;-71
2022/07/18 10:10:48;;;;;;;7.17;5.00;;;;;;;31.13;28.65;101953.59;5059747;28;20554;-72
2022/07/18 10:13:15;;;;;;;5.17;4.70;;;;;;;30.92;28.47;101950.31;5059826;28;20832;-73
2022/07/18 10:15:42;;;;;;;5.17;4.67;;;;;;;31.30;28.57;101940.97;5059885;28;20435;-72
2022/07/18 10:18:11;;;;;;;4.90;4.40;;;;;;;31.30;27.91;101939.16;5059660;28;20438;-72
2022/07/18 10:20:38;;;;;;;5.10;4.70;;;;;;;32.59;27.16;101937.56;5060130;28;20642;-73
2022/07/18 10:23:16;;;;;;;5.30;4.90;;;;;;;33.44;26.17;101934.66;5059612;28;20473;-72
2022/07/18 10:25:42;;;;;;;5.20;4.67;;;;;;;34.11;25.49;101925.50;5059702;28;20408;-74
2022/07/18 10:28:13;;;;;;;4.87;4.40;;;;;;;33.31;25.64;101922.97;5059481;28;20444;-74
2022/07/18 10:30:45;;;;;;;5.93;4.80;;;;;;;32.23;26.65;101909.25;5059242;28;20215;-74
2022/07/18 10:33:40;;;;;;;5.40;4.90;;;;;;;32.81;25.79;101892.97;5059388;28;20473;-75
2022/07/18 10:36:17;;;;;;;5.40;4.90;;;;;;;31.46;27.95;101916.66;5059423;28;20429;-74
2022/07/18 10:39:07;;;;;;;5.30;4.80;;;;;;;32.28;27.56;101914.38;5059519;28;20420;-75
2022/07/18 10:41:53;;;;;;;4.87;4.47;;;;;;;32.65;26.44;101903.88;5058744;28;20704;-74
2022/07/18 10:44:25;;;;;;;5.27;4.87;;;;;;;32.19;26.85;101921.22;5058833;28;20805;-72
2022/07/18 10:47:02;;;;;;;8.33;5.90;;;;;;;32.30;27.75;101920.53;5059363;28;20487;-75
2022/07/18 10:49:49;;;;;;;6.90;5.60;;;;;;;31.64;27.86;101914.72;5059502;28;20420;-75
2022/07/18 10:52:29;;;;;;;6.07;5.47;;;;;;;30.74;28.55;101906.44;5059085;28;20789;-74
2022/07/18 10:55:08;;;;;;;5.87;5.27;;;;;;;32.18;26.42;101909.56;5058847;28;20460;-73
2022/07/18 10:57:38;;;;;;;5.90;5.30;;;;;;;31.30;27.66;101919.41;5058860;28;20813;-72
2022/07/18 11:00:10;;;;;;;7.03;5.13;;;;;;;31.16;28.05;101912.16;5059085;28;20427;-72
2022/07/18 11:02:42;;;;;;;5.73;5.23;;;;;;;31.31;28.62;101896.91;5058870;28;20439;-73
2022/07/18 11:05:24;;;;;;;6.97;5.20;;;;;;;31.19;28.02;101899.38;5058619;28;20498;-72
2022/07/18 11:07:59;;;;;;;8.00;5.90;;;;;;;32.24;25.80;101892.09;5058977;28;20439;-71
2022/07/18 11:13:28;;;;;;;6.67;6.00;;;;;;;30.96;27.23;101895.31;5058664;28;20416;-70
2022/07/18 11:16:18;;;;;;;6.63;6.03;;;;;;;30.94;26.23;101893.66;5058964;28;20403;-72
2022/07/18 11:18:44;;;;;;;7.50;6.80;;;;;;;30.24;26.61;101895.75;5058965;28;20412;-72
2022/07/18 11:21:17;;;;;;;8.40;7.00;;;;;;;30.58;26.86;101882.25;5058695;28;20412;-73
2022/07/18 11:23:43;;;;;;;8.07;7.27;;;;;;;30.91;26.91;101879.41;5059673;28;20181;-70
2022/07/18 11:26:14;;;;;;;8.60;6.57;;;;;;;30.67;26.98;101878.16;5059190;28;20802;-70
2022/07/18 11:28:39;;;;;;;7.73;6.53;;;;;;;30.46;27.68;101875.75;5058636;28;20416;-71
2022/07/18 11:31:09;;;;;;;8.60;7.00;;;;;;;28.76;30.23;101873.81;5058445;28;20475;-71